This is the latest recevied weather packets stored in our database for station/object LIPZ. If no packets are shown the sender has not sent any weather packets the latest 10 day(s).
| Time | Temp. | Humidity | Pressure | Rain* | Wind** | Luminosity | Snow |
|---|---|---|---|---|---|---|---|
| 1777813204 | 21.11° C | 46% | 1018 hPa | - | - | - | - |
| 1777812304 | 21.11° C | 49% | 1018 hPa | - | - | - | - |
| 1777811405 | 21.11° C | 49% | 1018 hPa | - | - | - | - |
| 1777808704 | 20° C | 60% | 1019 hPa | - | - | - | - |
| 1777806904 | 18.89° C | 68% | 1019 hPa | - | - | - | - |
| 1777806005 | 18.89° C | 68% | 1019 hPa | - | - | - | - |
| 1777805104 | 18.89° C | 68% | 1019 hPa | - | - | - | - |
| 1777803304 | 20° C | 52% | 1019 hPa | - | - | - | - |
| 1777802405 | 20° C | 52% | 1019 hPa | - | - | - | - |
| 1777801503 | 18.89° C | 63% | 1019 hPa | - | - | - | - |
| 1777800605 | 18.89° C | 63% | 1019 hPa | - | - | - | - |
| 1777798804 | 17.78° C | 67% | 1019 hPa | - | - | - | - |
| 1777797005 | 18.89° C | 59% | 1019 hPa | - | - | - | - |
| 1777796104 | 17.78° C | 59% | 1019 hPa | - | - | - | - |
| 1777795205 | 17.78° C | 59% | 1019 hPa | - | - | - | - |
| 1777792504 | 15° C | 67% | 1019 hPa | - | - | - | - |
| 1777791605 | 15° C | 67% | 1019 hPa | - | - | - | - |
| 1777789804 | 13.89° C | 67% | 1019 hPa | - | - | - | - |
| 1777788904 | 12.78° C | 76% | 1019 hPa | - | - | - | - |
| 1777787103 | 12.22° C | 81% | 1019 hPa | - | - | - | - |
| 1777782605 | 11.11° C | 81% | 1019 hPa | - | - | - | - |
| 1777780805 | 11.11° C | 81% | 1019 hPa | - | - | - | - |
| 1777779904 | 12.22° C | 76% | 1019 hPa | - | - | - | - |
| 1777778103 | 11.11° C | 76% | 1019 hPa | - | - | - | - |
| 1777776303 | 12.22° C | 87% | 1019 hPa | - | - | - | - |
* Rain since midnight (hover to see other rain measurements)
** Current wind speed in m/s (hover to see current wind gust speed)